Hit Tracker is now ESPN Home Run Tracker! Hit Tracker founder Greg Rybarczyk is now collaborating with the ESPN Stats & Information Group to continue tracking all MLB home runs, and helping baseball fans know "How Far It Really Went!™" Please credit any information on this site to ESPN Stats & Information Group. For more information and analysis on home runs, please contact founder Greg Rybarczyk. E-Mail ESPN Home Run Tracker
Main Page | Ballparks | Park Overlays | Glossary | Highlight Homers | Feedback | Bio | 3 Types of HR's | AAA Home Run Derby Last Updated: September 19, 2017, 10:48 pm PST
If you want to know "How Far It Really Went!", then you've come to the right place! Welcome to the ESPN Home Run Tracker, where you can find accurate, transparently verifiable distances for every home run hit in MLB games. Please also check out the ESPN MLB Scoreboard throughout the 2017 season! Contact us at grybar@hittrackeronline.com.
Season:
Ballpark detail for Angel Stadium
Ballpark # of Home Runs HR per game Avg.
True
Distance
Avg.
Speed
Off
Bat
Avg.
Std.
Dist.
Angel Stadium 186 2.45 404.1 103.9 401.2

Scatter Plot of Home Runs Angel Stadium
 Overlay Ballpark:
Without range rings   With range rings

2017 Season Home Runs for Angel Stadium
Click headers to sort
Date ^ Video Path Hitter Hitter
Team
Pitcher Pitcher
Team
INN Ballpark Type/
Luck
True
Dist.
Speed
Off
Bat
Elev.
Angle
Horiz.
Angle
Apex Impact Due To: Std.
Dist.
#
Parks
Wind Temp. Alt.
09/19/17 Video View Perez, Roberto CLE Skaggs, Tyler LAA 5 Angel Stadiu... PL 407 107.0 22.5 78.6 66 0 0 0 407 28
09/19/17 Video View Upton, Justin LAA Allen, Cody CLE 9 Angel Stadiu... ND 448 110.0 26.6 100.9 102 1 0 1 447 30
09/17/17 Video View Gallo, Joey TEX Richards, Garrett LAA 2 Angel Stadiu... ND 494 118.7 21.7 87.4 90 0 0 0 494 30
09/17/17 Video View Trout, Mike LAA Bush, Matt TEX 8 Angel Stadiu... PL 417 102.4 33.3 96.0 126 9 1 1 407 25
09/16/17 Video View Upton, Justin LAA Hamels, Cole TEX 1 Angel Stadiu... ND 425 110.0 33.2 109.6 135 -2 2 1 424 30
09/16/17 Video View Upton, Justin LAA Hamels, Cole TEX 8 Angel Stadiu... JE 410 100.8 27.2 87.9 87 3 1 1 407 8
09/15/17 Video View Choo, Shin-Soo TEX Chavez, Jesse LAA 6 Angel Stadiu... JE/L 347 94.7 30.7 120.3 75 3 0 0 343 9
09/15/17 Video View Cron, C.J. LAA Rodriguez, Ricardo TEX 6 Angel Stadiu... PL 416 108.9 25.2 109.9 76 0 1 0 415 30
09/14/17 Video View Valbuena, Luis LAA Peacock, Brad HOU 4 Angel Stadiu... JE 410 102.6 24.3 91.2 75 1 0 1 409 7
09/14/17 Video View Pujols, Albert LAA Devenski, Chris HOU 9 Angel Stadiu... JE 395 100.7 25.4 82.0 77 0 0 0 394 11
09/13/17 Video View Valbuena, Luis LAA Fiers, Mike HOU 1 Angel Stadiu... ND 414 107.2 24.7 74.3 74 1 0 0 413 30
09/13/17 Video View Upton, Justin LAA Clippard, Tyler HOU 6 Angel Stadiu... PL 407 103.6 33.5 106.4 124 7 0 1 400 30
08/30/17 Video View Trout, Mike LAA Graveman, Kendall OAK 1 Angel Stadiu... ND 449 108.5 25.1 93.8 91 2 2 1 446 30
08/30/17 Video View Pujols, Albert LAA Graveman, Kendall OAK 3 Angel Stadiu... JE 398 107.4 21.5 78.0 59 0 1 0 398 19
08/30/17 Video View Pujols, Albert LAA Graveman, Kendall OAK 5 Angel Stadiu... PL 438 106.5 24.9 91.8 87 1 1 1 435 29
08/30/17 Video View Olson, Matt OAK Bridwell, Parker LAA 4 Angel Stadiu... PL 412 102.8 26.9 80.8 88 0 1 0 410 28
08/30/17 Video View Maxwell, Bruce OAK Bridwell, Parker LAA 4 Angel Stadiu... PL 381 109.3 22.9 57.4 56 0 1 0 379 29
08/30/17 Video View Pennington, Cliff LAA Hatcher, Chris OAK 7 Angel Stadiu... JE/L 379 98.9 29.6 67.0 81 6 1 0 372 22
08/29/17 Video View Cron, C.J. LAA Smith, Chris OAK 1 Angel Stadiu... PL 415 105.0 33.6 109.0 123 8 5 1 402 30
08/29/17 Video View Joyce, Matt OAK Scribner, Troy LAA 2 Angel Stadiu... PL 385 100.5 30.7 63.5 87 6 2 0 377 29
08/29/17 Video View Olson, Matt OAK Scribner, Troy LAA 2 Angel Stadiu... JE/L 378 99.1 28.4 69.6 78 3 2 0 374 21
08/29/17 Video View Maldonado, Martin LAA Smith, Chris OAK 4 Angel Stadiu... ND 429 110.9 29.4 118.0 99 0 3 1 426 30
08/29/17 Video View Cron, C.J. LAA Brady, Michael OAK 8 Angel Stadiu... PL 415 101.7 32.0 93.8 119 3 2 0 409 20
08/28/17 Video View Garneau, Dustin OAK Heaney, Andrew LAA 3 Angel Stadiu... JE 375 104.4 25.0 119.0 63 1 1 0 373 28
08/27/17 Video View Altuve, Jose HOU Nolasco, Ricky LAA 1 Angel Stadiu... ND 420 106.4 30.4 111.4 104 4 3 0 413 30
08/27/17 Video View Valbuena, Luis LAA Musgrove, Joe HOU 6 Angel Stadiu... PL 388 99.7 31.9 71.7 102 1 3 0 384 29
08/26/17 Video View Calhoun, Kole LAA Peacock, Brad HOU 2 Angel Stadiu... PL/L 378 102.0 39.0 66.7 142 19 4 1 355 20
08/26/17 Video View Marisnick, Jake HOU Skaggs, Tyler LAA 4 Angel Stadiu... PL 427 105.9 28.9 107.8 93 10 1 0 416 30
08/26/17 Video View Springer, George HOU Norris, Bud LAA 7 Angel Stadiu... JE 395 103.1 25.9 107.2 74 2 0 0 392 30
08/26/17 Video View Simmons, Andrelton LAA Clippard, Tyler HOU 8 Angel Stadiu... JE 385 99.6 28.6 108.3 82 3 1 0 381 25
08/25/17 Video View Davis, J.D. HOU Bridwell, Parker LAA 3 Angel Stadiu... PL 399 102.4 27.7 106.7 84 3 0 1 396 30
08/24/17 Video View Napoli, Mike TEX Scribner, Troy LAA 4 Angel Stadiu... JE/L 398 99.2 37.0 96.4 133 23 0 1 375 0
08/24/17 Video View Robinson, Drew TEX Scribner, Troy LAA 3 Angel Stadiu... ND 422 105.3 25.9 79.8 85 3 0 1 420 29
08/23/17 Video View Valbuena, Luis LAA Cashner, Andrew TEX 4 Angel Stadiu... ND 423 106.5 24.8 79.6 80 1 0 0 422 29
08/23/17 Video View Beltre, Adrian TEX Heaney, Andrew LAA 4 Angel Stadiu... PL 417 108.7 21.1 96.7 63 -2 0 0 419 25
08/23/17 Video View Chirinos, Robinson TEX Heaney, Andrew LAA 3 Angel Stadiu... PL 427 104.4 26.5 87.1 94 0 0 0 426 28
08/23/17 Video View Beltre, Adrian TEX Heaney, Andrew LAA 2 Angel Stadiu... PL 401 99.9 31.4 101.2 105 6 0 0 394 28
08/22/17 Video View Cowart, Kaleb LAA Bibens-Dirkx, Austin TEX 5 Angel Stadiu... PL 397 101.3 27.6 76.6 87 0 0 0 396 28
08/22/17 Video View Pujols, Albert LAA Gardewine, Nick TEX 7 Angel Stadiu... PL 412 101.3 28.7 91.4 102 0 0 0 412 18
08/21/17 Video View Beltre, Adrian TEX Skaggs, Tyler LAA 3 Angel Stadiu... PL 409 101.9 32.3 101.8 115 6 1 0 402 30
08/09/17 Video View Castillo, Welington BAL Scribner, Troy LAA 3 Angel Stadiu... JE 388 97.6 29.9 82.7 98 -2 2 1 387 1
08/09/17 Video View Cron, C.J. LAA Gausman, Kevin BAL 6 Angel Stadiu... ND 422 114.1 24.7 121.5 71 0 2 0 419 30
08/08/17 Video View Joseph, Caleb BAL Middleton, Keynan LAA 9 Angel Stadiu... JE 373 98.6 35.3 111.1 116 5 1 1 367 21
08/07/17 Video View Trout, Mike LAA Bundy, Dylan BAL 6 Angel Stadiu... PL 368 100.7 36.3 119.5 119 0 1 1 366 30
08/07/17 Video View Machado, Manny BAL Ramirez, J.C. LAA 7 Angel Stadiu... ND 421 110.8 24.4 110.1 75 0 0 0 421 30
08/06/17 Video View Escobar, Yunel LAA Manaea, Sean OAK 1 Angel Stadiu... PL 407 104.5 30.2 114.5 95 5 4 1 399 30
08/06/17 Video View Trout, Mike LAA Manaea, Sean OAK 3 Angel Stadiu... PL 384 102.6 28.5 121.9 75 5 2 0 376 30
08/06/17 Video View Canha, Mark OAK Nolasco, Ricky LAA 4 Angel Stadiu... PL 403 101.4 29.7 73.1 93 6 2 0 395 29
08/06/17 Video View Pinder, Chad OAK Petit, Yusmeiro LAA 7 Angel Stadiu... ND 435 107.1 30.4 106.2 110 7 4 0 425 30
08/06/17 Video View Davis, Khris OAK Parker, Blake LAA 8 Angel Stadiu... PL 377 101.2 34.8 64.8 117 -4 4 0 376 29
08/04/17 Video View Chapman, Matt OAK Scribner, Troy LAA 2 Angel Stadiu... PL 416 111.5 23.3 110.1 69 0 1 0 416 30
08/03/17 Video View Trout, Mike LAA Eickhoff, Jerad PHI 1 Angel Stadiu... JE 402 107.0 21.4 99.8 61 0 0 0 402 16
08/03/17 Video View Williams, Nick PHI Bridwell, Parker LAA 2 Angel Stadiu... JE/L 399 97.2 31.0 94.8 96 10 2 0 387 0
08/02/17 Video View Trout, Mike LAA Thompson, Jake PHI 3 Angel Stadiu... PL 420 103.0 26.6 87.9 93 0 1 0 419 26
08/02/17 Video View Cron, C.J. LAA Thompson, Jake PHI 3 Angel Stadiu... ND 440 111.7 30.2 112.2 114 0 2 0 438 30
08/02/17 Video View Cowart, Kaleb LAA Thompson, Jake PHI 3 Angel Stadiu... JE 405 101.7 24.9 94.1 79 0 0 0 404 8
08/01/17 Video View Pujols, Albert LAA Leiter Jr., Mark PHI 7 Angel Stadiu... PL 372 101.9 28.4 122.4 76 0 1 0 372 30
07/23/17 Video View Trout, Mike LAA Porcello, Rick BOS 6 Angel Stadiu... PL 412 101.3 28.4 83.4 95 2 2 0 408 18
07/23/17 Video View Ramirez, Hanley BOS Bridwell, Parker LAA 6 Angel Stadiu... PL 430 107.7 26.0 104.0 85 2 2 1 426 30
07/23/17 Video View Simmons, Andrelton LAA Porcello, Rick BOS 4 Angel Stadiu... JE 403 106.7 20.7 96.7 61 1 0 0 402 11
07/23/17 Video View Valbuena, Luis LAA Porcello, Rick BOS 7 Angel Stadiu... JE 370 102.7 25.9 60.6 65 -1 1 0 369 28
07/22/17 Video View Simmons, Andrelton LAA Price, David BOS 3 Angel Stadiu... JE 368 104.4 24.7 122.4 60 1 0 0 366 30
07/21/17 Video View Maldonado, Martin LAA Martin, Kyle BOS 7 Angel Stadiu... PL 405 106.6 25.7 111.2 75 1 0 0 403 30
07/19/17 Video View Cron, C.J. LAA Gonzalez, Gio WSH 6 Angel Stadiu... ND 458 113.3 24.1 101.3 84 3 0 0 455 30
07/19/17 Video View Trout, Mike LAA Blanton, Joe WSH 7 Angel Stadiu... PL/L 404 102.1 36.2 101.4 137 15 1 1 387 23
07/18/17 Video View Harper, Bryce WSH Chavez, Jesse LAA 1 Angel Stadiu... PL 402 99.7 28.3 96.1 91 2 1 0 399 12
07/18/17 Video View Trout, Mike LAA Jackson, Edwin WSH 1 Angel Stadiu... ND 443 108.0 25.9 97.6 93 2 1 1 440 30
07/18/17 Video View Rendon, Anthony WSH Chavez, Jesse LAA 7 Angel Stadiu... PL 408 104.6 33.0 109.4 119 4 1 0 402 30
07/18/17 Video View Maldonado, Martin LAA Jackson, Edwin WSH 6 Angel Stadiu... JE 350 103.7 23.4 127.0 52 0 0 0 349 16
07/18/17 Video View Lind, Adam WSH Middleton, Keynan LAA 9 Angel Stadiu... PL 422 103.1 29.4 91.8 110 0 0 0 422 27
07/16/17 Video View Morrison, Logan TB Bridwell, Parker LAA 7 Angel Stadiu... ND 424 105.8 31.2 74.0 114 3 4 0 417 30
07/16/17 Video View Cron, C.J. LAA Kolarek, Adam TB 8 Angel Stadiu... JE 366 98.5 30.4 63.4 85 -3 2 0 366 28
07/15/17 Video View Morrison, Logan TB Ramirez, J.C. LAA 3 Angel Stadiu... PL 408 101.5 26.7 94.7 90 -1 1 0 408 17
07/15/17 Video View Valbuena, Luis LAA Cobb, Alex TB 7 Angel Stadiu... JE 396 99.2 27.0 95.1 86 0 0 0 395 2
07/15/17 Video View Souza Jr., Steven TB Middleton, Keynan LAA 8 Angel Stadiu... PL 435 110.4 20.7 93.4 69 0 0 1 434 27
07/15/17 Video View Valbuena, Luis LAA Diaz, Jumbo TB 9 Angel Stadiu... PL 393 104.2 26.6 67.8 76 0 0 0 392 30
07/14/17 Video View Longoria, Evan TB Nolasco, Ricky LAA 1 Angel Stadiu... PL 415 109.4 21.7 101.2 65 -1 0 0 415 30
07/14/17 Video View Pujols, Albert LAA Faria, Jacob TB 2 Angel Stadiu... JE 398 99.1 29.8 95.1 103 -1 1 1 397 5
07/02/17 Video View Cano, Robinson SEA Middleton, Keynan LAA 8 Angel Stadiu... PL 363 100.9 28.0 51.8 68 4 1 0 358 29
07/01/17 Video View Simmons, Andrelton LAA Gaviglio, Sam SEA 2 Angel Stadiu... ND 439 112.6 20.9 97.4 70 1 0 0 439 30
06/30/17 Video View Zunino, Mike SEA Bridwell, Parker LAA 3 Angel Stadiu... ND 435 108.8 26.9 105.3 92 3 0 0 432 30
06/30/17 Video View Cano, Robinson SEA Bridwell, Parker LAA 5 Angel Stadiu... PL/L 377 99.2 35.7 70.2 122 8 0 0 369 22
06/30/17 Video View Cano, Robinson SEA Petit, Yusmeiro LAA 7 Angel Stadiu... PL 381 99.3 32.8 67.9 102 5 0 1 376 29
06/30/17 Video View Seager, Kyle SEA Pounders, Brooks LAA 9 Angel Stadiu... PL 359 102.1 39.0 62.8 141 6 -1 1 354 26
06/29/17 Video View Puig, Yasiel LAD Ramirez, J.C. LAA 5 Angel Stadiu... PL 379 104.4 26.7 120.6 72 -2 0 0 381 30
06/29/17 Video View Utley, Chase LAD Ramirez, J.C. LAA 5 Angel Stadiu... PL 392 100.6 31.2 78.7 112 -7 0 0 398 28
06/29/17 Video View Pederson, Joc LAD Ramirez, J.C. LAA 6 Angel Stadiu... ND 421 108.9 25.4 72.1 82 -1 0 1 421 30
06/28/17 Video View Simmons, Andrelton LAA Ryu, Hyun-Jin LAD 6 Angel Stadiu... PL 406 103.4 30.3 106.1 105 0 -1 0 406 30
06/28/17 Video View Thompson, Trayce LAD Middleton, Keynan LAA 8 Angel Stadiu... ND 412 107.8 29.1 116.6 93 1 -1 1 412 30
06/28/17 Video View Grandal, Yasmani LAD Bedrosian, Cam LAA 9 Angel Stadiu... JE 404 100.7 26.3 92.5 87 0 -1 0 405 6
06/18/17 Video View Perez, Salvador KC Middleton, Keynan LAA 4 Angel Stadiu... PL 432 105.0 27.4 91.5 103 -1 1 0 432 30
06/17/17 Video View Maybin, Cameron LAA Junis, Jake KC 1 Angel Stadiu... PL 425 106.2 23.3 94.4 72 1 1 0 424 26
06/17/17 Video View Pujols, Albert LAA Junis, Jake KC 5 Angel Stadiu... JE 408 107.7 21.6 99.2 62 -1 0 0 409 24
06/17/17 Video View Valbuena, Luis LAA Young, Chris (P) KC 7 Angel Stadiu... PL 392 98.2 34.5 78.5 118 12 2 0 378 1
06/16/17 Video View Cain, Lorenzo KC Middleton, Keynan LAA 8 Angel Stadiu... PL 411 106.4 24.0 103.2 71 1 0 0 409 30
06/16/17 Video View Cain, Lorenzo KC Chavez, Jesse LAA 3 Angel Stadiu... PL 431 111.7 23.5 106.0 73 1 1 0 429 30
06/16/17 Video View Pennington, Cliff LAA Kennedy, Ian KC 6 Angel Stadiu... PL 389 99.3 30.6 75.7 99 0 1 0 388 26
06/15/17 Video View Cain, Lorenzo KC Nolasco, Ricky LAA 3 Angel Stadiu... PL 411 110.3 19.5 96.9 57 0 -1 0 411 19
06/15/17 Video View Gordon, Alex KC Nolasco, Ricky LAA 4 Angel Stadiu... JE 409 105.0 21.6 92.5 66 0 0 0 409 7
06/14/17 Video View Sanchez, Gary NYY Shoemaker, Matt LAA 1 Angel Stadiu... ND 433 109.4 29.9 112.7 104 4 1 0 427 30
06/14/17 Video View Espinosa, Danny LAA Pineda, Michael NYY 2 Angel Stadiu... PL 396 104.5 34.4 63.8 120 2 2 1 391 30
06/14/17 Video View Simmons, Andrelton LAA Herrera, Ronald NYY 7 Angel Stadiu... PL 409 105.5 28.8 109.4 97 -2 0 1 411 30
06/13/17 Video View Headley, Chase NYY Ramirez, J.C. LAA 7 Angel Stadiu... ND 433 106.5 25.1 85.7 92 -2 0 0 434 29
06/13/17 Video View Young Jr., Eric LAA Clippard, Tyler NYY 8 Angel Stadiu... JE 382 100.3 28.0 70.8 82 0 0 0 382 27
06/12/17 Video View Calhoun, Kole LAA Tanaka, Masahiro NYY 1 Angel Stadiu... JE/L 404 99.4 32.8 87.5 116 7 1 0 396 2
06/12/17 Video View Judge, Aaron NYY Norris, Bud LAA 8 Angel Stadiu... ND 438 107.7 26.8 80.9 100 0 -1 0 438 30
06/04/17 Video View Castro, Jason MIN Nolasco, Ricky LAA 3 Angel Stadiu... JE 395 106.1 24.4 69.1 66 3 0 0 392 29
06/04/17 Video View Sano, Miguel MIN Nolasco, Ricky LAA 6 Angel Stadiu... PL 395 102.9 32.3 104.8 123 -9 1 1 403 30
06/03/17 Video View Simmons, Andrelton LAA Santana, Ervin MIN 3 Angel Stadiu... PL 408 104.9 28.9 112.5 90 4 -1 0 403 30
06/03/17 Video View Calhoun, Kole LAA Santana, Ervin MIN 3 Angel Stadiu... PL 392 99.5 34.6 75.1 118 12 -1 0 380 24
06/03/17 Video View Pujols, Albert LAA Santana, Ervin MIN 4 Angel Stadiu... PL 364 101.3 39.9 116.0 141 19 -1 1 345 20
06/03/17 Video View Kepler, Max MIN Shoemaker, Matt LAA 6 Angel Stadiu... JE 403 100.8 25.5 92.9 80 0 -1 0 402 5
06/02/17 Video View Mauer, Joe MIN Ramirez, J.C. LAA 1 Angel Stadiu... JE 400 103.7 24.7 102.8 71 1 0 0 399 28
06/02/17 Video View Kepler, Max MIN Ramirez, J.C. LAA 3 Angel Stadiu... ND 425 104.5 28.1 80.9 98 2 0 0 422 29
06/02/17 Video View Grossman, Robbie MIN Ramirez, J.C. LAA 3 Angel Stadiu... PL 394 99.8 27.5 80.5 87 0 0 0 394 17
06/02/17 Video View Espinosa, Danny LAA Rosario, Randy MIN 9 Angel Stadiu... PL 382 105.5 25.8 120.8 68 0 0 0 382 30
06/01/17 Video View Sano, Miguel MIN Meyer, Alex LAA 2 Angel Stadiu... JE/L 405 101.1 35.6 91.5 137 12 0 1 393 0
06/01/17 Video View Calhoun, Kole LAA Mejia, Adalberto MIN 6 Angel Stadiu... JE 405 103.7 22.4 93.7 70 0 0 0 405 4
06/01/17 Video View Calhoun, Kole LAA Rogers, Taylor MIN 8 Angel Stadiu... JE 388 103.8 23.8 74.8 67 0 0 0 388 23
05/31/17 Video View Kemp, Matt ATL Chavez, Jesse LAA 2 Angel Stadiu... PL 394 100.4 30.4 73.1 96 5 -1 0 390 29
05/31/17 Video View Young Jr., Eric LAA Vizcaino, Arodys ATL 8 Angel Stadiu... PL 396 101.0 30.7 74.5 102 2 -1 0 395 29
05/30/17 Video View Kemp, Matt ATL Bridwell, Parker LAA 3 Angel Stadiu... PL 421 103.8 26.4 83.1 88 3 -1 0 419 26
05/30/17 Video View Pujols, Albert LAA Colon, Bartolo ATL 3 Angel Stadiu... PL 405 108.4 27.5 118.7 84 -2 -1 0 408 30
05/30/17 Video View Flowers, Tyler ATL Bridwell, Parker LAA 7 Angel Stadiu... JE 388 98.5 31.8 81.1 109 0 -1 1 389 12
05/29/17 Video View Simmons, Andrelton LAA Teheran, Julio ATL 2 Angel Stadiu... JE 404 103.0 22.8 91.5 68 -1 0 0 405 1
05/29/17 Video View Pujols, Albert LAA Teheran, Julio ATL 4 Angel Stadiu... PL 431 107.5 25.5 101.3 84 3 0 1 428 30
05/29/17 Video View Valbuena, Luis LAA Teheran, Julio ATL 4 Angel Stadiu... JE 380 99.9 26.8 72.0 73 3 0 0 377 15
05/17/17 Video View Abreu, Jose CHW Shoemaker, Matt LAA 1 Angel Stadiu... PL 422 103.9 25.5 93.3 85 1 -1 0 420 27
05/17/17 Video View Trout, Mike LAA Swarzak, Anthony CHW 6 Angel Stadiu... PL 415 106.0 24.6 101.6 77 1 0 1 415 30
05/16/17 Video View Sanchez, Yolmer CHW Ramirez, J.C. LAA 6 Angel Stadiu... PL 407 103.4 30.6 72.4 104 4 -2 0 404 30
05/16/17 Video View Anderson, Tim CHW Petit, Yusmeiro LAA 11 Angel Stadiu... JE/L 391 99.5 34.1 100.5 122 5 -3 0 387 20
05/15/17 Video View Trout, Mike LAA Pelfrey, Mike CHW 5 Angel Stadiu... PL 414 103.8 31.1 105.8 108 7 -2 0 408 30
05/15/17 Video View Calhoun, Kole LAA Pelfrey, Mike CHW 5 Angel Stadiu... PL 405 100.5 31.9 76.3 106 13 -2 0 393 27
05/15/17 Video View Abreu, Jose CHW Chavez, Jesse LAA 4 Angel Stadiu... JE 395 98.1 30.2 82.7 97 6 -1 0 390 2
05/15/17 Video View Maldonado, Martin LAA Kahnle, Tommy CHW 7 Angel Stadiu... JE 375 110.5 21.7 122.3 52 1 0 0 376 30
05/14/17 Video View Trout, Mike LAA Verlander, Justin DET 1 Angel Stadiu... ND 414 107.7 30.9 113.5 111 -3 0 1 417 30
05/14/17 Video View Espinosa, Danny LAA Verlander, Justin DET 4 Angel Stadiu... ND 428 110.1 25.7 69.1 78 5 0 0 422 30
05/13/17 Video View Martinez, J.D. DET Nolasco, Ricky LAA 2 Angel Stadiu... JE 398 111.8 21.9 113.8 57 1 0 0 397 30
05/13/17 Video View Upton, Justin DET Nolasco, Ricky LAA 6 Angel Stadiu... JE 358 96.8 30.5 121.1 76 6 0 0 352 17
05/13/17 Video View Trout, Mike LAA Greene, Shane DET 7 Angel Stadiu... ND 438 110.7 24.9 103.4 88 -1 0 0 439 30
05/13/17 Video View Martinez, J.D. DET Norris, Bud LAA 9 Angel Stadiu... JE 381 102.2 24.4 74.7 69 -1 0 0 383 20
05/12/17 Video View Valbuena, Luis LAA Zimmermann, Jordan DET 2 Angel Stadiu... JE 370 99.7 35.7 67.6 123 2 -1 1 369 26
05/12/17 Video View Trout, Mike LAA Sanchez, Anibal DET 8 Angel Stadiu... ND 434 107.3 26.3 99.2 95 0 -1 0 434 30
05/11/17 Video View Upton, Justin DET Ramirez, J.C. LAA 1 Angel Stadiu... PL 430 103.7 29.3 93.0 108 5 0 0 425 27
05/11/17 Video View Romine, Andrew DET Ramirez, J.C. LAA 2 Angel Stadiu... PL 368 99.5 29.9 58.1 78 4 0 0 364 30
05/07/17 Video View Escobar, Yunel LAA Fiers, Mike HOU 1 Angel Stadiu... JE/L 396 102.8 24.8 103.5 70 3 0 0 393 18
05/07/17 Video View Altuve, Jose HOU Shoemaker, Matt LAA 3 Angel Stadiu... PL 424 107.8 25.2 101.0 92 -5 -1 1 430 30
05/07/17 Video View Escobar, Yunel LAA Fiers, Mike HOU 5 Angel Stadiu... JE 410 104.2 22.7 92.0 71 -1 0 0 411 12
05/07/17 Video View Gattis, Evan HOU Shoemaker, Matt LAA 7 Angel Stadiu... PL 390 104.9 26.2 114.7 72 1 -1 0 390 30
05/05/17 Video View Pujols, Albert LAA Keuchel, Dallas HOU 2 Angel Stadiu... PL 433 109.1 21.8 86.7 69 -2 0 0 435 29
05/05/17 Video View Reddick, Josh HOU Chavez, Jesse LAA 3 Angel Stadiu... PL 396 105.4 27.0 64.5 78 1 -1 0 395 30
05/05/17 Video View Maldonado, Martin LAA Keuchel, Dallas HOU 6 Angel Stadiu... PL 410 101.4 31.7 87.0 119 1 -1 0 409 20
05/05/17 Video View McCann, Brian HOU Alvarez, Jose LAA 7 Angel Stadiu... JE 375 98.9 33.6 71.4 112 0 -2 0 376 26
04/26/17 Video View Alonso, Yonder OAK Petit, Yusmeiro LAA 6 Angel Stadiu... PL 404 102.9 35.0 73.0 128 15 -2 1 390 30
04/26/17 N/A View Joyce, Matt OAK Guerra, Deolis LAA 8 Angel Stadiu... ND 412 106.1 25.2 75.2 78 1 -1 0 411 29
04/25/17 Video View Phegley, Josh OAK Alvarez, Jose LAA 10 Angel Stadiu... JE/L 394 101.2 23.9 84.2 76 -1 0 0 394 11
04/25/17 Video View Trout, Mike LAA Casilla, Santiago OAK 10 Angel Stadiu... PL 347 97.3 35.2 59.5 107 -7 -1 0 355 28
04/24/17 Video View Martin, Russell TOR Chavez, Jesse LAA 4 Angel Stadiu... PL 419 104.6 25.1 97.2 82 1 0 0 418 29
04/23/17 Video View Pillar, Kevin TOR Pounders, Brooks LAA 8 Angel Stadiu... JE 400 98.2 29.9 97.9 94 9 0 0 390 1
04/23/17 Video View Goins, Ryan TOR Pounders, Brooks LAA 9 Angel Stadiu... ND 427 106.4 31.8 71.9 117 10 1 1 416 30
04/23/17 Video View Travis, Devon TOR Guerra, Deolis LAA 8 Angel Stadiu... ND 418 109.9 25.8 116.1 76 5 1 0 413 30
04/22/17 Video View Simmons, Andrelton LAA Lawrence, Casey TOR 3 Angel Stadiu... JE 397 100.0 30.1 101.7 100 0 1 0 395 28
04/22/17 Video View Pillar, Kevin TOR Yates, Kirby LAA 8 Angel Stadiu... PL 408 104.6 30.9 111.3 104 2 1 1 404 30
04/22/17 Video View Smoak, Justin TOR Yates, Kirby LAA 9 Angel Stadiu... PL 386 101.0 35.5 76.6 133 0 1 1 384 26
04/21/17 Video View Trout, Mike LAA Latos, Mat TOR 5 Angel Stadiu... PL 403 102.7 25.8 79.0 81 0 1 0 403 27
04/21/17 Video View Bautista, Jose TOR Chavez, Jesse LAA 13 Angel Stadiu... PL 403 100.7 27.8 96.9 93 0 0 0 403 19
04/13/17 Video View Espinosa, Danny LAA Hauschild, Mike TEX 9 Angel Stadiu... PL 406 99.9 29.9 80.2 94 9 0 0 397 24
04/13/17 Video View Mazara, Nomar TEX Nolasco, Ricky LAA 3 Angel Stadiu... PL 399 104.3 27.3 66.3 76 6 0 0 393 30
04/13/17 Video View Gomez, Carlos TEX Nolasco, Ricky LAA 1 Angel Stadiu... JE 401 99.0 29.7 96.5 96 5 0 0 396 7
04/12/17 Video View Gomez, Carlos TEX Petit, Yusmeiro LAA 7 Angel Stadiu... PL 408 104.0 28.6 106.3 95 1 -1 0 408 30
04/12/17 Video View Napoli, Mike TEX Chavez, Jesse LAA 2 Angel Stadiu... PL 411 104.6 26.1 77.4 84 0 0 1 411 29
04/12/17 Video View Trout, Mike LAA Griffin, A.J. TEX 3 Angel Stadiu... PL 425 104.1 25.6 91.7 86 2 0 0 423 28
04/12/17 Video View Andrus, Elvis TEX Chavez, Jesse LAA 2 Angel Stadiu... PL 428 106.2 27.3 106.5 88 11 -1 0 417 30
04/11/17 Video View Espinosa, Danny LAA Dyson, Sam TEX 9 Angel Stadiu... PL 412 107.7 21.4 97.6 65 0 0 0 412 21
04/11/17 Video View Marte, Jefry LAA Hamels, Cole TEX 7 Angel Stadiu... PL 372 99.8 35.2 114.1 117 3 -2 1 370 29
04/11/17 Video View Lucroy, Jonathan TEX Skaggs, Tyler LAA 3 Angel Stadiu... PL 393 105.5 28.2 120.1 82 1 0 0 393 30
04/11/17 Video View Andrus, Elvis TEX Skaggs, Tyler LAA 3 Angel Stadiu... PL 371 99.4 32.2 117.6 96 0 0 1 371 30
04/09/17 Video View Pujols, Albert LAA Fien, Casey SEA 9 Angel Stadiu... JE/L 405 98.7 35.8 91.0 125 23 0 1 381 0
04/09/17 Video View Simmons, Andrelton LAA Iwakuma, Hisashi SEA 2 Angel Stadiu... PL 360 98.7 31.0 120.7 87 -3 -1 0 363 30
04/09/17 Video View Haniger, Mitch SEA Morin, Mike LAA 7 Angel Stadiu... PL 426 106.4 22.6 89.5 75 1 0 0 425 28
04/09/17 Video View Cano, Robinson SEA Shoemaker, Matt LAA 3 Angel Stadiu... JE 406 100.6 26.9 93.4 90 1 0 0 405 4
04/08/17 Video View Trout, Mike LAA Scribner, Evan SEA 7 Angel Stadiu... PL 404 101.8 25.5 96.2 82 0 -1 -1 405 17
04/08/17 Video View Escobar, Yunel LAA Hernandez, Felix SEA 5 Angel Stadiu... JE 411 101.8 25.9 91.1 85 1 -1 0 410 14
04/08/17 Video View Haniger, Mitch SEA Nolasco, Ricky LAA 1 Angel Stadiu... PL 427 104.4 27.8 98.4 97 5 -1 0 422 29
04/07/17 Video View Calhoun, Kole LAA Fien, Casey SEA 7 Angel Stadiu... PL 384 99.3 32.2 74.7 109 0 -1 0 385 28
04/07/17 Video View Maybin, Cameron LAA Gallardo, Yovani SEA 6 Angel Stadiu... PL 397 101.2 26.2 79.5 79 2 0 1 396 19


About HitTracker | Contact Us
© 2006-2017 HitTrackerOnline